createdAt,value
2022-11-22T00:00:08.046Z,115.88
2022-11-22T00:01:09.674Z,97.78
2022-11-22T00:02:11.393Z,102.47
2022-11-22T00:03:12.985Z,154.45
2022-11-22T00:04:14.550Z,131.82
2022-11-22T00:05:16.155Z,118.07
2022-11-22T00:06:17.766Z,133.27
2022-11-22T00:07:19.367Z,109.25
2022-11-22T00:08:20.974Z,104.25
2022-11-22T00:09:22.512Z,141.03
2022-11-22T00:10:24.108Z,113.78
2022-11-22T00:11:25.674Z,121.68
2022-11-22T00:12:27.223Z,169.73
2022-11-22T00:13:28.845Z,159.35
2022-11-22T00:14:30.412Z,116.10
2022-11-22T00:15:31.987Z,137.38
2022-11-22T00:16:34.687Z,104.35
2022-11-22T00:17:36.280Z,99.45
2022-11-22T00:18:37.982Z,125.22
2022-11-22T00:19:39.568Z,137.30
2022-11-22T00:20:41.121Z,144.25
2022-11-22T00:21:42.673Z,136.27
2022-11-22T00:22:45.107Z,170.13
2022-11-22T00:23:46.923Z,111.07
2022-11-22T00:24:49.086Z,159.20
2022-11-22T00:25:50.627Z,123.22
2022-11-22T00:26:52.199Z,133.45
2022-11-22T00:27:53.965Z,134.90
2022-11-22T00:28:55.499Z,215.02
2022-11-22T00:29:57.110Z,151.70
2022-11-22T00:30:58.650Z,208.85
2022-11-22T00:32:00.261Z,166.77
2022-11-22T00:33:01.834Z,162.93
2022-11-22T00:34:03.393Z,135.02
2022-11-22T00:35:05.287Z,131.90
2022-11-22T00:36:06.988Z,88.78
2022-11-22T00:37:08.624Z,94.93
2022-11-22T00:38:10.157Z,125.03
2022-11-22T00:39:11.714Z,99.20
2022-11-22T00:40:13.282Z,119.93
2022-11-22T00:41:15.217Z,97.43
2022-11-22T00:42:16.809Z,74.57
2022-11-22T00:43:18.439Z,93.65
2022-11-22T00:44:19.982Z,95.55
2022-11-22T00:45:21.529Z,91.03
2022-11-22T00:46:23.082Z,81.13
2022-11-22T00:47:24.718Z,95.05
2022-11-22T00:48:26.317Z,73.65
2022-11-22T00:49:28.215Z,74.60
2022-11-22T00:50:30.317Z,79.30
2022-11-22T00:51:31.849Z,76.22
2022-11-22T00:52:33.492Z,73.13
2022-11-22T00:53:35.028Z,95.05
2022-11-22T00:54:36.672Z,93.07
2022-11-22T00:55:38.215Z,72.63
2022-11-22T00:56:39.765Z,72.95
2022-11-22T00:57:41.403Z,86.25
2022-11-22T00:58:43.031Z,59.35
2022-11-22T00:59:44.568Z,77.33
2022-11-22T01:00:46.143Z,74.55
2022-11-22T01:01:47.736Z,67.72
2022-11-22T01:02:49.280Z,80.15
2022-11-22T01:03:50.987Z,90.28
2022-11-22T01:04:52.566Z,73.18
2022-11-22T01:05:54.112Z,92.72
2022-11-22T01:06:55.653Z,87.53
2022-11-22T01:07:57.234Z,89.13
2022-11-22T01:08:58.956Z,86.35
2022-11-22T01:10:00.520Z,89.97
2022-11-22T01:11:02.188Z,75.35
2022-11-22T01:12:03.925Z,110.25
2022-11-22T01:13:05.626Z,89.63
2022-11-22T01:14:07.801Z,99.25
2022-11-22T01:15:09.797Z,99.78
2022-11-22T01:16:11.885Z,87.53
2022-11-22T01:17:13.512Z,77.20
2022-11-22T01:18:15.045Z,99.35
2022-11-22T01:19:16.670Z,103.40
2022-11-22T01:20:18.394Z,94.60
2022-11-22T01:21:19.939Z,101.35
2022-11-22T01:22:21.537Z,122.05
2022-11-22T01:23:23.087Z,93.30
2022-11-22T01:24:24.773Z,86.50
2022-11-22T01:25:26.332Z,90.63
2022-11-22T01:26:27.890Z,83.50
2022-11-22T01:27:29.446Z,74.45
2022-11-22T01:28:31.004Z,104.55
2022-11-22T01:29:32.828Z,85.38
2022-11-22T01:30:34.492Z,85.17
2022-11-22T01:31:36.022Z,76.15
2022-11-22T01:32:37.598Z,80.07
2022-11-22T01:33:39.137Z,69.93
2022-11-22T01:34:40.738Z,90.50
2022-11-22T01:35:42.552Z,91.13
2022-11-22T01:36:44.172Z,92.13
2022-11-22T01:37:45.735Z,76.13
2022-11-22T01:38:47.372Z,70.75
2022-11-22T01:39:48.981Z,73.78
2022-11-22T01:40:50.809Z,67.73
2022-11-22T01:41:52.427Z,78.30
2022-11-22T01:42:55.621Z,54.38
2022-11-22T01:43:57.275Z,62.00
2022-11-22T01:45:30.800Z,59.88
2022-11-22T01:46:34.354Z,63.45
2022-11-22T01:47:35.964Z,44.03
2022-11-22T01:48:51.507Z,69.25
2022-11-22T01:49:58.116Z,61.47
2022-11-22T01:51:19.930Z,65.80
2022-11-22T01:52:23.323Z,57.40
2022-11-22T01:53:34.266Z,81.32
2022-11-22T01:54:37.858Z,66.40
2022-11-22T01:55:39.631Z,79.50
2022-11-22T01:56:42.806Z,68.70
2022-11-22T01:57:44.347Z,84.10
2022-11-22T01:58:47.399Z,92.75
2022-11-22T01:59:52.021Z,91.38
2022-11-22T02:00:53.777Z,67.18
2022-11-22T02:01:55.431Z,69.90
2022-11-22T02:02:58.513Z,85.17
2022-11-22T02:04:00.364Z,65.28
2022-11-22T02:05:03.854Z,69.97
2022-11-22T02:06:05.683Z,88.18
2022-11-22T02:07:11.540Z,74.55
2022-11-22T02:08:33.023Z,75.13
2022-11-22T02:09:34.567Z,65.93
2022-11-22T02:10:37.596Z,84.68
2022-11-22T02:11:41.850Z,80.43
2022-11-22T02:12:43.408Z,76.43
2022-11-22T02:13:44.961Z,78.00
2022-11-22T02:14:46.588Z,91.95
2022-11-22T02:15:48.130Z,84.05
2022-11-22T02:16:50.648Z,82.53
2022-11-22T02:17:52.261Z,76.70
2022-11-22T02:18:53.793Z,81.07
2022-11-22T02:19:56.333Z,89.22
2022-11-22T02:20:58.601Z,83.32
2022-11-22T02:22:10.699Z,97.72
2022-11-22T02:23:16.260Z,84.50
2022-11-22T02:24:26.848Z,90.32
2022-11-22T02:25:48.726Z,83.45
2022-11-22T02:26:50.335Z,85.10
2022-11-22T02:27:51.923Z,87.90
2022-11-22T02:28:53.601Z,82.40
2022-11-22T02:29:55.124Z,102.00
2022-11-22T02:30:56.783Z,92.60
2022-11-22T02:31:58.338Z,93.18
2022-11-22T02:32:59.926Z,101.20
2022-11-22T02:34:01.964Z,77.43
2022-11-22T02:35:22.617Z,89.10
2022-11-22T02:36:24.172Z,78.00
2022-11-22T02:37:28.725Z,96.07
2022-11-22T02:38:32.660Z,88.78
2022-11-22T02:39:34.199Z,78.25
2022-11-22T02:40:57.272Z,85.72
2022-11-22T02:41:58.826Z,80.82
2022-11-22T02:43:02.503Z,96.15
2022-11-22T02:44:04.165Z,75.18
2022-11-22T02:45:06.048Z,103.83
2022-11-22T02:46:11.418Z,89.90
2022-11-22T02:47:12.961Z,103.28
2022-11-22T02:48:16.713Z,104.35
2022-11-22T02:49:22.868Z,93.57
2022-11-22T02:50:24.463Z,102.50
2022-11-22T02:51:26.598Z,89.28
2022-11-22T02:52:28.216Z,85.72
2022-11-22T02:53:32.810Z,99.85
2022-11-22T02:54:34.371Z,95.75
2022-11-22T02:55:36.106Z,76.70
2022-11-22T02:56:37.743Z,99.57
2022-11-22T02:57:39.278Z,78.78
2022-11-22T02:58:40.843Z,82.85
2022-11-22T02:59:42.380Z,73.90
2022-11-22T03:00:44.016Z,74.95
2022-11-22T03:01:45.667Z,81.75
2022-11-22T03:02:47.224Z,86.38
2022-11-22T03:03:48.819Z,76.80
2022-11-22T03:04:50.429Z,84.88
2022-11-22T03:05:51.973Z,110.53
2022-11-22T03:06:58.033Z,100.53
2022-11-22T03:07:59.622Z,100.20
2022-11-22T03:09:01.197Z,115.20
2022-11-22T03:10:04.248Z,108.43
2022-11-22T03:11:05.814Z,96.95
2022-11-22T03:12:07.487Z,98.25
2022-11-22T03:13:09.039Z,97.93
2022-11-22T03:14:10.657Z,82.15
2022-11-22T03:15:12.212Z,94.97
2022-11-22T03:16:13.783Z,101.47
2022-11-22T03:17:16.359Z,80.80
2022-11-22T03:18:17.922Z,97.72
2022-11-22T03:19:19.537Z,82.28
2022-11-22T03:20:21.065Z,80.43
2022-11-22T03:21:22.599Z,72.65
2022-11-22T03:22:24.179Z,67.93
2022-11-22T03:23:25.719Z,71.25
2022-11-22T03:24:27.314Z,68.18
2022-11-22T03:25:28.907Z,87.70
2022-11-22T03:26:30.523Z,86.50
2022-11-22T03:27:32.082Z,75.65
2022-11-22T03:28:33.617Z,78.72
2022-11-22T03:29:35.249Z,83.90
2022-11-22T03:30:40.046Z,74.15
2022-11-22T03:31:41.643Z,73.90
2022-11-22T03:32:43.192Z,81.95
2022-11-22T03:33:44.777Z,69.80
2022-11-22T03:34:46.365Z,79.72
2022-11-22T03:35:47.914Z,71.90
2022-11-22T03:36:49.469Z,57.63
2022-11-22T03:37:51.068Z,67.97
2022-11-22T03:38:52.670Z,65.28
2022-11-22T03:39:54.294Z,67.10
2022-11-22T03:40:55.905Z,67.88
2022-11-22T03:41:57.880Z,70.68
2022-11-22T03:43:01.151Z,67.43
2022-11-22T03:44:02.694Z,67.20
2022-11-22T03:45:04.545Z,67.18
2022-11-22T03:46:06.093Z,62.13
2022-11-22T03:47:07.645Z,60.13
2022-11-22T03:48:09.232Z,61.78
2022-11-22T03:49:11.914Z,57.67
2022-11-22T03:50:13.520Z,57.47
2022-11-22T03:51:15.081Z,55.25
2022-11-22T03:52:16.698Z,57.58
2022-11-22T03:53:18.263Z,66.53
2022-11-22T03:54:19.841Z,61.45
2022-11-22T03:55:21.490Z,62.47
2022-11-22T03:56:23.078Z,49.70
2022-11-22T03:57:24.610Z,54.10
2022-11-22T03:58:26.297Z,54.53
2022-11-22T03:59:28.195Z,51.50
2022-11-22T04:00:30.072Z,47.63
2022-11-22T04:01:31.704Z,51.25
2022-11-22T04:02:33.330Z,48.42
2022-11-22T04:03:35.030Z,42.40
2022-11-22T04:04:36.618Z,40.25
2022-11-22T04:05:38.178Z,42.08
2022-11-22T04:06:40.183Z,44.45
2022-11-22T04:07:41.848Z,40.10
2022-11-22T04:08:44.491Z,42.22
2022-11-22T04:09:46.065Z,44.67
2022-11-22T04:10:50.861Z,43.15
2022-11-22T04:11:52.405Z,38.20
2022-11-22T04:13:00.224Z,45.42
2022-11-22T04:14:20.143Z,41.85
2022-11-22T04:15:21.691Z,43.85
2022-11-22T04:16:23.299Z,33.92
2022-11-22T04:17:43.120Z,38.63
2022-11-22T04:18:44.667Z,37.27
2022-11-22T04:20:06.212Z,39.67
2022-11-22T04:21:26.044Z,38.10
2022-11-22T04:22:27.576Z,43.83
2022-11-22T04:23:33.721Z,45.20
2022-11-22T04:24:54.127Z,45.03
2022-11-22T04:25:55.848Z,43.42
2022-11-22T04:26:57.430Z,40.58
2022-11-22T04:27:59.118Z,48.85
2022-11-22T04:29:09.589Z,43.27
2022-11-22T04:30:17.381Z,41.22
2022-11-22T04:31:40.185Z,39.15
2022-11-22T04:32:47.781Z,42.60
2022-11-22T04:33:49.329Z,40.63
2022-11-22T04:34:50.879Z,44.15
2022-11-22T04:35:52.786Z,38.78
2022-11-22T04:36:54.397Z,43.45
2022-11-22T04:37:55.930Z,42.80
2022-11-22T04:38:57.475Z,45.83
2022-11-22T04:39:58.996Z,42.23
2022-11-22T04:41:00.594Z,40.65
2022-11-22T04:42:20.962Z,44.55
2022-11-22T04:43:46.613Z,39.45
2022-11-22T04:44:48.202Z,42.58
2022-11-22T04:45:49.871Z,40.85
2022-11-22T04:46:51.416Z,43.63
2022-11-22T04:48:01.550Z,39.78
2022-11-22T04:49:03.190Z,40.10
2022-11-22T04:50:26.520Z,36.35
2022-11-22T04:51:46.675Z,40.17
2022-11-22T04:52:53.897Z,37.72
2022-11-22T04:53:55.466Z,36.75
2022-11-22T04:54:57.020Z,40.58
2022-11-22T04:55:58.588Z,35.28
2022-11-22T04:57:00.194Z,43.67
2022-11-22T04:58:02.246Z,38.55
2022-11-22T04:59:03.850Z,38.33
2022-11-22T05:00:06.077Z,36.53
2022-11-22T05:01:07.883Z,32.13
2022-11-22T05:02:09.547Z,37.07
2022-11-22T05:03:12.423Z,34.13
2022-11-22T05:04:13.963Z,39.08
2022-11-22T05:05:15.629Z,38.75
2022-11-22T05:06:17.196Z,39.70
2022-11-22T05:07:18.880Z,37.85
2022-11-22T05:08:20.997Z,36.20
2022-11-22T05:09:22.819Z,44.28
2022-11-22T05:10:26.871Z,38.67
2022-11-22T05:11:28.865Z,41.13
2022-11-22T05:12:30.472Z,42.37
2022-11-22T05:13:36.630Z,37.42
2022-11-22T05:14:38.238Z,40.80
2022-11-22T05:15:39.787Z,42.70
2022-11-22T05:16:41.330Z,43.13
2022-11-22T05:17:43.007Z,37.88
2022-11-22T05:18:59.074Z,40.45
2022-11-22T05:20:00.796Z,40.22
2022-11-22T05:21:20.204Z,41.58
2022-11-22T05:22:44.350Z,40.22
2022-11-22T05:23:54.812Z,41.60
2022-11-22T05:24:56.346Z,37.42
2022-11-22T05:25:57.909Z,41.42
2022-11-22T05:26:59.489Z,38.30
2022-11-22T05:28:01.028Z,37.55
2022-11-22T05:29:06.892Z,41.15
2022-11-22T05:30:08.687Z,39.90
2022-11-22T05:31:14.215Z,39.30
2022-11-22T05:32:15.766Z,34.35
2022-11-22T05:33:17.304Z,35.90
2022-11-22T05:34:18.947Z,35.77
2022-11-22T05:35:20.504Z,34.97
2022-11-22T05:36:22.339Z,34.25
2022-11-22T05:37:24.217Z,38.80
2022-11-22T05:38:25.862Z,39.40
2022-11-22T05:39:27.812Z,40.90
2022-11-22T05:40:29.551Z,36.75
2022-11-22T05:41:31.145Z,40.03
2022-11-22T05:42:33.594Z,39.33
2022-11-22T05:43:35.157Z,39.05
2022-11-22T05:44:36.766Z,39.80
2022-11-22T05:45:38.333Z,56.58
2022-11-22T05:46:39.910Z,46.50
2022-11-22T05:47:41.463Z,52.03
2022-11-22T05:48:44.626Z,51.60
2022-11-22T05:49:46.207Z,57.00
2022-11-22T05:50:47.772Z,51.28
2022-11-22T05:51:49.384Z,48.38
2022-11-22T05:52:50.998Z,49.67
2022-11-22T05:53:52.629Z,45.15
2022-11-22T05:54:54.196Z,50.73
2022-11-22T05:55:55.741Z,50.28
2022-11-22T05:56:57.347Z,49.50
2022-11-22T05:58:02.099Z,43.75
2022-11-22T05:59:03.766Z,47.75
2022-11-22T06:00:06.053Z,50.42
2022-11-22T06:01:09.242Z,42.33
2022-11-22T06:02:10.870Z,42.42
2022-11-22T06:03:12.930Z,40.75
2022-11-22T06:04:14.506Z,38.63
2022-11-22T06:05:16.252Z,40.37
2022-11-22T06:06:17.803Z,38.08
2022-11-22T06:07:20.500Z,40.25
2022-11-22T06:08:22.126Z,38.75
2022-11-22T06:09:23.668Z,44.10
2022-11-22T06:10:25.209Z,38.80
2022-11-22T06:11:27.473Z,38.92
2022-11-22T06:12:29.843Z,41.65
2022-11-22T06:13:37.727Z,42.05
2022-11-22T06:14:43.218Z,41.17
2022-11-22T06:15:45.351Z,38.08
2022-11-22T06:16:46.965Z,41.67
2022-11-22T06:17:48.623Z,40.28
2022-11-22T06:18:50.315Z,40.13
2022-11-22T06:19:51.850Z,41.15
2022-11-22T06:20:59.818Z,38.63
2022-11-22T06:22:01.354Z,41.08
2022-11-22T06:23:02.958Z,38.28
2022-11-22T06:24:04.772Z,35.67
2022-11-22T06:25:06.747Z,41.83
2022-11-22T06:26:12.701Z,34.70
2022-11-22T06:27:14.309Z,36.83
2022-11-22T06:28:15.929Z,32.00
2022-11-22T06:29:17.640Z,34.88
2022-11-22T06:30:19.211Z,33.92
2022-11-22T06:31:25.259Z,35.58
2022-11-22T06:32:26.803Z,35.08
2022-11-22T06:33:28.416Z,34.00
2022-11-22T06:34:30.137Z,36.97
2022-11-22T06:35:31.723Z,36.10
2022-11-22T06:36:34.228Z,34.35
2022-11-22T06:37:35.819Z,31.50
2022-11-22T06:38:38.380Z,31.15
2022-11-22T06:39:39.939Z,31.65
2022-11-22T06:40:41.673Z,29.15
2022-11-22T06:41:43.410Z,34.65
2022-11-22T06:42:45.024Z,29.27
2022-11-22T06:43:49.327Z,27.83
2022-11-22T06:44:51.245Z,30.83
2022-11-22T06:45:55.891Z,28.30
2022-11-22T06:46:57.437Z,30.35
2022-11-22T06:47:59.200Z,26.95
2022-11-22T06:49:00.847Z,30.58
2022-11-22T06:50:02.393Z,29.40
2022-11-22T06:51:09.598Z,32.10
2022-11-22T06:52:11.358Z,30.98
2022-11-22T06:53:39.378Z,27.30
2022-11-22T06:54:35.602Z,27.67
2022-11-22T06:55:49.984Z,30.33
2022-11-22T06:56:52.213Z,29.58
2022-11-22T06:57:53.812Z,28.60
2022-11-22T06:58:55.489Z,30.15
2022-11-22T06:59:57.131Z,29.48
2022-11-22T07:01:02.173Z,29.85
2022-11-22T07:02:06.590Z,29.73
2022-11-22T07:03:08.663Z,31.30
2022-11-22T07:04:10.251Z,32.63
2022-11-22T07:05:25.481Z,31.02
2022-11-22T07:06:38.321Z,33.03
2022-11-22T07:07:39.968Z,32.55
2022-11-22T07:08:42.224Z,30.70
2022-11-22T07:09:44.091Z,35.08
2022-11-22T07:10:45.656Z,34.97
2022-11-22T07:11:47.232Z,31.20
2022-11-22T07:12:48.810Z,33.72
2022-11-22T07:13:50.596Z,32.58
2022-11-22T07:14:52.203Z,33.10
2022-11-22T07:15:57.355Z,32.67
2022-11-22T07:16:58.968Z,34.53
2022-11-22T07:18:00.534Z,32.60
2022-11-22T07:19:02.158Z,31.30
2022-11-22T07:20:04.129Z,28.77
2022-11-22T07:21:13.520Z,34.45
2022-11-22T07:22:15.359Z,31.48
2022-11-22T07:23:16.994Z,32.15
2022-11-22T07:24:18.588Z,31.42
2022-11-22T07:25:20.227Z,30.35
2022-11-22T07:26:23.226Z,34.00
2022-11-22T07:27:24.777Z,30.80
2022-11-22T07:28:26.451Z,31.20
2022-11-22T07:29:28.325Z,33.17
2022-11-22T07:30:30.187Z,30.80
2022-11-22T07:31:31.770Z,34.13
2022-11-22T07:32:33.309Z,33.45
2022-11-22T07:33:34.985Z,33.40
2022-11-22T07:34:36.884Z,31.75
2022-11-22T07:35:38.532Z,31.95
2022-11-22T07:36:40.094Z,34.70
2022-11-22T07:37:41.675Z,31.50
2022-11-22T07:38:43.323Z,32.97
2022-11-22T07:39:44.859Z,30.98
2022-11-22T07:40:46.524Z,32.20
2022-11-22T07:41:48.244Z,30.77
2022-11-22T07:42:52.038Z,30.73
2022-11-22T07:43:57.042Z,30.83
2022-11-22T07:44:58.607Z,30.23
2022-11-22T07:46:00.979Z,27.80
2022-11-22T07:47:02.623Z,30.67
2022-11-22T07:48:04.803Z,37.13
2022-11-22T07:49:06.371Z,33.45
2022-11-22T07:50:08.313Z,34.67
2022-11-22T07:51:09.863Z,31.77
2022-11-22T07:52:12.689Z,35.00
2022-11-22T07:53:14.336Z,33.40
2022-11-22T07:54:15.975Z,37.87
2022-11-22T07:55:17.756Z,34.90
2022-11-22T07:56:19.402Z,33.20
2022-11-22T07:57:21.028Z,31.80
2022-11-22T07:58:22.581Z,33.67
2022-11-22T07:59:24.186Z,35.05
2022-11-22T08:00:25.879Z,35.53
2022-11-22T08:01:27.624Z,38.45
2022-11-22T08:02:29.191Z,31.75
2022-11-22T08:03:30.736Z,30.92
2022-11-22T08:04:32.383Z,34.63
2022-11-22T08:05:33.932Z,36.72
2022-11-22T08:06:35.483Z,36.78
2022-11-22T08:07:37.093Z,37.30
2022-11-22T08:08:38.699Z,39.13
2022-11-22T08:09:40.323Z,31.80
2022-11-22T08:10:41.909Z,36.10
2022-11-22T08:11:43.556Z,36.33
2022-11-22T08:12:45.332Z,34.17
2022-11-22T08:13:46.883Z,34.33
2022-11-22T08:14:48.442Z,32.80
2022-11-22T08:15:50.823Z,30.75
2022-11-22T08:16:54.029Z,34.30
2022-11-22T08:17:55.681Z,34.97
2022-11-22T08:18:57.234Z,32.97
2022-11-22T08:19:58.795Z,37.75
2022-11-22T08:21:08.689Z,32.25
2022-11-22T08:22:10.396Z,32.63
2022-11-22T08:23:12.049Z,31.80
2022-11-22T08:24:13.812Z,31.53
2022-11-22T08:25:15.375Z,33.22
2022-11-22T08:26:17.656Z,30.50
2022-11-22T08:27:19.263Z,33.42
2022-11-22T08:28:20.948Z,33.60
2022-11-22T08:29:22.541Z,30.33
2022-11-22T08:30:24.124Z,30.13
2022-11-22T08:31:26.148Z,30.25
2022-11-22T08:32:27.706Z,29.33
2022-11-22T08:33:29.311Z,32.90
2022-11-22T08:34:30.882Z,33.47
2022-11-22T08:35:33.262Z,32.63
2022-11-22T08:36:34.823Z,27.98
2022-11-22T08:37:36.428Z,28.55
2022-11-22T08:38:38.127Z,30.98
2022-11-22T08:39:39.694Z,28.95
2022-11-22T08:40:42.207Z,30.38
2022-11-22T08:41:43.826Z,29.40
2022-11-22T08:42:45.485Z,32.33
2022-11-22T08:43:49.847Z,31.00
2022-11-22T08:44:51.471Z,32.67
2022-11-22T08:45:57.314Z,29.73
2022-11-22T08:46:58.990Z,26.05
2022-11-22T08:48:00.527Z,26.05
2022-11-22T08:49:04.019Z,30.90
2022-11-22T08:50:06.144Z,31.80
2022-11-22T08:51:09.380Z,29.90
2022-11-22T08:52:10.950Z,31.70
2022-11-22T08:53:12.559Z,29.90
2022-11-22T08:54:14.932Z,26.52
2022-11-22T08:55:16.524Z,31.83
2022-11-22T08:56:18.141Z,28.23
2022-11-22T08:57:19.803Z,29.02
2022-11-22T08:58:22.083Z,31.50
2022-11-22T08:59:23.699Z,29.38
2022-11-22T09:00:28.663Z,30.40
2022-11-22T09:01:33.607Z,28.15
2022-11-22T09:02:35.246Z,26.95
2022-11-22T09:03:37.053Z,24.58
2022-11-22T09:04:38.616Z,28.58
2022-11-22T09:08:23.262Z,27.40
2022-11-22T09:09:40.226Z,25.88
2022-11-22T09:10:41.797Z,28.05
2022-11-22T09:11:43.365Z,27.50
2022-11-22T09:12:45.635Z,24.80
2022-11-22T09:13:47.347Z,28.40
2022-11-22T09:14:48.882Z,23.55
2022-11-22T09:15:50.450Z,29.58
2022-11-22T09:16:52.024Z,28.67
2022-11-22T09:17:59.621Z,25.17
2022-11-22T09:19:01.231Z,26.83
2022-11-22T09:20:02.991Z,30.85
2022-11-22T09:21:06.764Z,24.88
2022-11-22T09:22:08.319Z,28.63
2022-11-22T09:23:09.960Z,27.75
2022-11-22T09:24:11.526Z,24.98
2022-11-22T09:25:13.102Z,26.23
2022-11-22T09:26:16.423Z,24.83
2022-11-22T09:27:18.003Z,26.50
2022-11-22T09:28:19.630Z,27.55
2022-11-22T09:29:21.174Z,24.90
2022-11-22T09:30:22.788Z,26.50
2022-11-22T09:31:24.552Z,26.02
2022-11-22T09:32:30.694Z,24.90
2022-11-22T09:33:36.987Z,26.95
2022-11-22T09:34:38.532Z,25.25
2022-11-22T09:35:40.170Z,27.40
2022-11-22T09:36:41.766Z,23.80
2022-11-22T09:37:43.330Z,25.23
2022-11-22T09:38:45.133Z,26.52
2022-11-22T09:39:48.522Z,26.85
2022-11-22T09:40:50.450Z,23.38
2022-11-22T09:41:55.162Z,26.08
2022-11-22T09:43:08.174Z,26.48
2022-11-22T09:44:18.192Z,24.75
2022-11-22T09:45:57.698Z,23.77
2022-11-22T09:47:38.898Z,21.50
2022-11-22T09:49:02.418Z,23.45
2022-11-22T09:50:17.674Z,21.40
2022-11-22T09:51:21.688Z,21.92
2022-11-22T09:52:38.429Z,20.67
2022-11-22T09:53:54.660Z,22.15
2022-11-22T09:54:57.849Z,24.25
2022-11-22T09:56:00.682Z,24.17
2022-11-22T09:57:03.432Z,23.05
2022-11-22T09:58:33.292Z,23.63
2022-11-22T09:59:36.299Z,27.00
2022-11-22T10:00:37.876Z,24.88
2022-11-22T10:01:41.176Z,24.53
2022-11-22T10:02:59.994Z,27.75
2022-11-22T10:04:14.621Z,27.17
2022-11-22T10:05:19.624Z,27.65
2022-11-22T10:06:37.770Z,28.20
2022-11-22T10:07:44.616Z,24.75
2022-11-22T10:09:18.231Z,32.70
2022-11-22T10:10:22.764Z,31.83
2022-11-22T10:11:36.773Z,26.45
2022-11-22T10:12:49.247Z,27.00
2022-11-22T10:13:54.904Z,27.53
2022-11-22T10:15:04.872Z,25.83
2022-11-22T10:16:30.839Z,29.75
2022-11-22T10:17:55.144Z,29.80
2022-11-22T10:19:08.711Z,30.20
2022-11-22T10:20:17.633Z,27.45
2022-11-22T10:21:19.724Z,29.33
2022-11-22T10:22:21.280Z,28.55
2022-11-22T10:23:24.023Z,29.45
2022-11-22T10:24:25.648Z,26.75
2022-11-22T10:25:35.901Z,35.53
2022-11-22T10:26:37.452Z,30.38
2022-11-22T10:27:39.005Z,30.08
2022-11-22T10:28:45.147Z,28.73
2022-11-22T10:30:15.995Z,28.80
2022-11-22T10:31:18.579Z,29.77
2022-11-22T10:32:25.232Z,28.90
2022-11-22T10:33:42.823Z,31.13
2022-11-22T10:35:04.028Z,30.65
2022-11-22T10:36:28.827Z,29.83
2022-11-22T10:37:36.499Z,29.23
2022-11-22T10:38:46.969Z,29.52
2022-11-22T10:40:06.823Z,30.05
2022-11-22T10:41:36.817Z,30.55
2022-11-22T10:42:58.048Z,31.70
2022-11-22T10:44:05.656Z,27.73
2022-11-22T10:45:15.342Z,28.15
2022-11-22T10:46:18.266Z,32.40
2022-11-22T10:47:57.071Z,30.58
2022-11-22T10:49:03.611Z,35.50
2022-11-22T10:50:06.129Z,31.00
2022-11-22T10:51:22.971Z,31.20
2022-11-22T10:52:33.529Z,31.27
2022-11-22T10:54:03.499Z,31.90
2022-11-22T10:55:19.090Z,30.98
2022-11-22T10:56:26.871Z,31.95
2022-11-22T10:57:49.582Z,33.88
2022-11-22T10:59:36.358Z,31.35
2022-11-22T11:00:39.775Z,31.73
2022-11-22T11:01:47.226Z,31.35
2022-11-22T11:03:09.121Z,34.03
2022-11-22T11:04:11.360Z,33.13
2022-11-22T11:05:15.042Z,30.95
2022-11-22T11:06:43.623Z,31.13
2022-11-22T11:07:49.319Z,31.33
2022-11-22T11:09:47.878Z,31.33
2022-11-22T11:10:29.335Z,32.97
2022-11-22T11:11:35.534Z,32.53
2022-11-22T11:12:54.819Z,28.17
2022-11-22T11:14:19.449Z,31.80
2022-11-22T11:15:27.406Z,27.60
2022-11-22T11:16:31.162Z,32.50
2022-11-22T11:17:35.305Z,30.15
2022-11-22T11:19:02.025Z,27.65
2022-11-22T11:20:07.242Z,28.17
2022-11-22T11:21:12.428Z,29.35
2022-11-22T11:22:31.589Z,29.33
2022-11-22T11:23:40.728Z,29.38
2022-11-22T11:24:42.319Z,28.02
2022-11-22T11:25:47.629Z,30.30
2022-11-22T11:26:53.844Z,28.17
2022-11-22T11:27:57.026Z,24.20
2022-11-22T11:29:19.450Z,29.73
2022-11-22T11:30:21.051Z,32.13
2022-11-22T11:31:22.692Z,27.85
2022-11-22T11:32:24.226Z,28.35
2022-11-22T11:33:31.047Z,27.55
2022-11-22T11:34:32.823Z,27.75
2022-11-22T11:35:34.602Z,30.45
2022-11-22T11:36:41.568Z,26.58
2022-11-22T11:37:43.115Z,27.90
2022-11-22T11:38:44.637Z,26.45
2022-11-22T11:39:46.410Z,33.45
2022-11-22T11:40:48.196Z,27.73
2022-11-22T11:41:50.790Z,29.10
2022-11-22T11:43:29.676Z,31.98
2022-11-22T11:44:37.201Z,27.17
2022-11-22T11:45:38.803Z,27.65
2022-11-22T11:46:40.310Z,27.48
2022-11-22T11:47:41.847Z,27.25
2022-11-22T11:48:43.639Z,26.73
2022-11-22T11:49:50.717Z,29.15
2022-11-22T11:50:52.315Z,28.95
2022-11-22T11:51:58.015Z,25.52
2022-11-22T11:53:03.649Z,33.05
2022-11-22T11:54:40.903Z,28.10
2022-11-22T11:55:42.467Z,30.38
2022-11-22T11:56:45.845Z,25.55
2022-11-22T11:57:47.393Z,27.10
2022-11-22T11:58:56.206Z,26.13
2022-11-22T11:59:59.265Z,28.33
2022-11-22T12:01:00.836Z,26.52
2022-11-22T12:02:36.457Z,24.52
2022-11-22T12:03:38.059Z,23.27
2022-11-22T12:04:50.131Z,25.90
2022-11-22T12:06:11.195Z,26.92
2022-11-22T12:07:20.589Z,27.90
2022-11-22T12:08:30.586Z,26.83
2022-11-22T12:09:36.660Z,33.80
2022-11-22T12:10:55.596Z,29.60
2022-11-22T12:11:58.447Z,29.90
2022-11-22T12:13:04.372Z,28.23
2022-11-22T12:14:21.697Z,28.27
2022-11-22T12:15:42.095Z,29.17
2022-11-22T12:16:46.412Z,26.98
2022-11-22T12:17:55.092Z,24.05
2022-11-22T12:18:59.681Z,25.13
2022-11-22T12:20:05.085Z,27.45
2022-11-22T12:21:26.941Z,29.27
2022-11-22T12:22:52.678Z,28.88
2022-11-22T12:24:34.433Z,27.70
2022-11-22T12:25:37.578Z,26.58
2022-11-22T12:26:39.639Z,27.92
2022-11-22T12:27:41.165Z,28.83
2022-11-22T12:28:42.774Z,28.80
2022-11-22T12:29:44.659Z,24.98
2022-11-22T12:30:53.111Z,29.75
2022-11-22T12:31:56.406Z,25.92
2022-11-22T12:33:00.967Z,29.25
2022-11-22T12:34:43.054Z,28.40
2022-11-22T12:35:44.730Z,28.67
2022-11-22T12:36:49.344Z,28.42
2022-11-22T12:38:09.042Z,29.88
2022-11-22T12:39:16.090Z,26.88
2022-11-22T12:40:25.670Z,27.67
2022-11-22T12:41:28.033Z,26.40
2022-11-22T12:42:37.821Z,29.42
2022-11-22T12:43:46.251Z,26.67
2022-11-22T12:44:51.456Z,29.95
2022-11-22T12:45:58.099Z,28.20
2022-11-22T12:47:01.692Z,34.10
2022-11-22T12:48:08.921Z,26.10
2022-11-22T12:49:25.350Z,32.05
2022-11-22T12:50:55.892Z,28.67
2022-11-22T12:52:18.382Z,30.58
2022-11-22T12:53:28.926Z,36.97
2022-11-22T12:54:33.929Z,39.70
2022-11-22T12:55:58.764Z,33.22
2022-11-22T12:57:02.845Z,34.45
2022-11-22T12:58:13.178Z,33.17
2022-11-22T12:59:22.100Z,34.33
2022-11-22T13:00:24.751Z,32.70
2022-11-22T13:01:32.354Z,30.08
2022-11-22T13:02:59.136Z,31.70
2022-11-22T13:04:09.089Z,32.20
2022-11-22T13:05:27.620Z,34.25
2022-11-22T13:06:33.033Z,32.38
2022-11-22T13:08:10.895Z,31.50
2022-11-22T13:09:21.730Z,35.78
2022-11-22T13:10:40.129Z,32.88
2022-11-22T13:12:06.659Z,34.53
2022-11-22T13:13:28.131Z,34.15
2022-11-22T13:14:43.290Z,31.98
2022-11-22T13:15:44.913Z,33.90
2022-11-22T13:16:46.477Z,30.10
2022-11-22T13:17:48.681Z,35.40
2022-11-22T13:19:04.362Z,36.75
2022-11-22T13:20:08.737Z,36.50
2022-11-22T13:21:48.644Z,32.55
2022-11-22T13:23:08.436Z,32.65
2022-11-22T13:24:23.081Z,33.97
2022-11-22T13:25:54.878Z,29.42
2022-11-22T13:27:17.877Z,32.53
2022-11-22T13:28:21.656Z,29.80
2022-11-22T13:29:27.566Z,32.42
2022-11-22T13:30:29.892Z,32.22
2022-11-22T13:31:34.358Z,33.88
2022-11-22T13:32:38.202Z,31.35
2022-11-22T13:33:59.147Z,36.10
2022-11-22T13:35:12.427Z,32.65
2022-11-22T13:36:29.367Z,32.43
2022-11-22T13:37:32.262Z,33.15
2022-11-22T13:38:33.797Z,29.58
2022-11-22T13:39:36.350Z,31.38
2022-11-22T13:40:50.686Z,30.08
2022-11-22T13:41:57.823Z,31.15
2022-11-22T13:43:19.589Z,30.48
2022-11-22T13:44:23.656Z,30.75
2022-11-22T13:45:25.433Z,33.28
2022-11-22T13:46:57.854Z,37.17
2022-11-22T13:47:59.393Z,30.03
2022-11-22T13:49:07.441Z,33.65
2022-11-22T13:50:39.930Z,34.03
2022-11-22T13:52:00.698Z,34.92
2022-11-22T13:53:21.377Z,31.52
2022-11-22T13:54:48.066Z,32.47
2022-11-22T13:55:49.695Z,30.45
2022-11-22T13:56:59.771Z,30.08
2022-11-22T13:58:27.976Z,31.00
2022-11-22T13:59:29.846Z,28.63
2022-11-22T14:00:31.458Z,30.10
2022-11-22T14:01:36.074Z,27.75
2022-11-22T14:02:58.401Z,25.92
2022-11-22T14:04:21.197Z,24.17
2022-11-22T14:05:33.464Z,30.63